Ana Sayfa
METAR-TAF:

METAR-TAF

Havaalanları :

Chesapeake Regional Airport

Norfolk, Virginia, Amerika Birleşik Devletleri

Enlem: 36-39-56N, Boylam: 076-19-14W, yükseklik: 6 m

Güncel hava durumu gözlemi

Rapor saat 19:15 UTC de 8 dakika önce yapıldı.
Sakin rüzgar
Sıcaklık 13°C
Nem 51%
Basınç 1018 hPa
Görüş mesafesi: 16.1 km
5000 ft yükseklikte parçalı bulutlu
7000 ft yükseklikte çok bulutlu

METAR: KCPK 241915Z AUTO 00000KT 10SM SCT050 OVC070 13/03 A3006 RMK AO2 T01260033

Saat: 14:23 (19:23 UTC)


TAF: eksik

4.000'den fazla havaalanı için hava durumu gözlemleri ve tahminleri (METAR ve TAF raporları).

Kullanılabilir istasyonlar harita üzerinde sarı ve kırmızı noktalarla gösterilir.

İstasyonun adını görmek için fareyi noktanın üzerinde gezdirin.

Sonrasında hava gözlem ve tahminlerini görmek için tıklayın.

Haritayı değiştirmek için: yaklaştırmak için siyah artı işaretli yeşil düğmeye ve uzaklaştırmak için de eksi işaretli düğmeye hızla tıklayın; bitişik haritalar için yeşil okları kullanın.


METAR-TAF: